One Hundred Palms, California
Current Conditions -  °F | °C
As of 12:56 PM on Saturday 22 Nov 2014 (Local Time) from KNJK Reporting Station
Scattered Clouds Scattered Clouds  
Wind Chill: 79°   Ceiling: Unl
Heat Index: 79°   Visibility: 10mi
Dew Point: 39°   Wind: 10mph
Humidity: 24%   Direction: 120°ESE
Pressure: 29.94"   Gusts: NA
Location:  33.093°N, 116.06°W
Report Text: KNJK 222056Z 12009KT 10SM SCT070 26/04 A2994 RMK AO2 SLP153 T02610039 58039 $
Loading
Personal Weather Stations






























Interactive Weather Map New forecast layout! Learn more

10-Day Weather Forecast

Advertisements
Track Severe Weather on mobile